createdAt,value
2019-05-25T00:01:20.822Z,13.48
2019-05-25T00:03:49.301Z,13.47
2019-05-25T00:06:17.844Z,13.46
2019-05-25T00:08:46.402Z,13.45
2019-05-25T00:11:14.975Z,13.44
2019-05-25T00:13:43.563Z,13.40
2019-05-25T00:16:12.079Z,13.37
2019-05-25T00:18:40.579Z,13.36
2019-05-25T00:21:09.096Z,13.34
2019-05-25T00:23:37.594Z,13.34
2019-05-25T00:26:06.106Z,13.33
2019-05-25T00:28:35.671Z,13.34
2019-05-25T00:31:04.220Z,13.35
2019-05-25T00:33:32.697Z,13.36
2019-05-25T00:36:01.522Z,13.36
2019-05-25T00:38:30.077Z,13.37
2019-05-25T00:40:58.564Z,13.35
2019-05-25T00:43:27.162Z,13.38
2019-05-25T00:45:55.644Z,13.38
2019-05-25T00:48:24.122Z,13.38
2019-05-25T00:50:52.652Z,13.37
2019-05-25T00:53:21.137Z,13.38
2019-05-25T00:55:49.620Z,13.37
2019-05-25T00:58:18.163Z,13.37
2019-05-25T01:00:46.747Z,13.36
2019-05-25T01:03:15.239Z,13.37
2019-05-25T01:05:43.756Z,13.38
2019-05-25T01:08:12.248Z,13.38
2019-05-25T01:10:40.740Z,13.39
2019-05-25T01:13:09.264Z,13.40
2019-05-25T01:15:37.755Z,13.42
2019-05-25T01:18:06.305Z,13.44
2019-05-25T01:20:34.907Z,13.46
2019-05-25T01:23:03.381Z,13.50
2019-05-25T01:25:31.937Z,13.51
2019-05-25T01:28:00.495Z,13.54
2019-05-25T01:30:29.109Z,13.56
2019-05-25T01:32:57.591Z,13.57
2019-05-25T01:35:26.138Z,13.56
2019-05-25T01:37:55.030Z,13.55
2019-05-25T01:40:23.569Z,13.58
2019-05-25T01:42:52.109Z,13.59
2019-05-25T01:45:20.635Z,13.58
2019-05-25T01:47:49.117Z,13.60
2019-05-25T01:50:17.701Z,13.62
2019-05-25T01:52:46.184Z,13.64
2019-05-25T01:55:14.772Z,13.64
2019-05-25T01:57:43.308Z,13.44
2019-05-25T02:00:11.980Z,13.68
2019-05-25T02:02:40.445Z,13.69
2019-05-25T02:05:09.321Z,13.70
2019-05-25T02:07:37.792Z,13.70
2019-05-25T02:10:07.804Z,13.69
2019-05-25T02:12:36.407Z,13.68
2019-05-25T02:15:08.505Z,13.67
2019-05-25T02:17:37.000Z,13.65
2019-05-25T02:20:09.112Z,13.66
2019-05-25T02:22:39.124Z,13.64
2019-05-25T02:25:17.674Z,13.63
2019-05-25T02:27:38.523Z,13.61
2019-05-25T02:30:07.910Z,13.60
2019-05-25T02:32:36.390Z,13.59
2019-05-25T02:35:06.583Z,13.59
2019-05-25T02:37:35.066Z,13.60
2019-05-25T02:40:06.594Z,13.61
2019-05-25T02:42:35.117Z,13.60
2019-05-25T02:45:04.677Z,13.59
2019-05-25T02:47:33.169Z,13.60
2019-05-25T02:50:01.666Z,13.59
2019-05-25T02:52:30.155Z,13.58
2019-05-25T02:54:58.640Z,13.57
2019-05-25T02:57:27.180Z,13.56
2019-05-25T02:59:55.656Z,13.55
2019-05-25T03:02:24.218Z,13.54
2019-05-25T03:04:52.814Z,13.53
2019-05-25T03:07:21.679Z,13.53
2019-05-25T03:09:51.328Z,13.55
2019-05-25T03:12:20.550Z,13.52
2019-05-25T03:14:49.018Z,13.48
2019-05-25T03:17:17.497Z,13.44
2019-05-25T03:19:46.031Z,13.41
2019-05-25T03:22:14.516Z,13.40
2019-05-25T03:24:42.990Z,13.39
2019-05-25T03:27:11.506Z,13.39
2019-05-25T03:29:39.982Z,13.39
2019-05-25T03:32:08.474Z,13.39
2019-05-25T03:34:36.999Z,13.37
2019-05-25T03:37:05.543Z,13.38
2019-05-25T03:39:34.015Z,13.39
2019-05-25T03:42:02.796Z,13.38
2019-05-25T03:44:31.275Z,13.39
2019-05-25T03:46:59.822Z,13.43
2019-05-25T03:49:28.371Z,13.44
2019-05-25T03:51:56.835Z,13.46
2019-05-25T03:54:25.322Z,13.46
2019-05-25T03:56:53.847Z,13.45
2019-05-25T03:59:22.327Z,13.47
2019-05-25T04:01:50.799Z,13.49
2019-05-25T04:04:19.317Z,13.51
2019-05-25T04:06:47.801Z,13.54
2019-05-25T04:09:16.287Z,13.55
2019-05-25T04:11:44.806Z,13.56
2019-05-25T04:14:13.450Z,13.56
2019-05-25T04:16:41.937Z,13.57
2019-05-25T04:19:10.455Z,13.58
2019-05-25T04:21:38.933Z,13.57
2019-05-25T04:24:08.390Z,13.58
2019-05-25T04:26:36.909Z,13.58
2019-05-25T04:29:05.565Z,13.61
2019-05-25T04:31:34.032Z,13.63
2019-05-25T04:34:02.598Z,13.68
2019-05-25T04:36:31.075Z,13.74
2019-05-25T04:38:59.572Z,13.78
2019-05-25T04:41:28.074Z,13.80
2019-05-25T04:43:57.574Z,13.82
2019-05-25T04:46:26.069Z,13.84
2019-05-25T04:48:54.597Z,13.86
2019-05-25T04:51:23.085Z,13.87
2019-05-25T04:53:51.586Z,13.88
2019-05-25T04:56:20.075Z,13.88
2019-05-25T04:58:48.563Z,13.87
2019-05-25T05:01:17.038Z,13.86
2019-05-25T05:03:45.563Z,13.88
2019-05-25T05:06:14.033Z,13.90
2019-05-25T05:08:42.532Z,13.93
2019-05-25T05:11:11.045Z,13.94
2019-05-25T05:13:39.538Z,13.96
2019-05-25T05:16:08.015Z,13.99
2019-05-25T05:18:36.539Z,14.01
2019-05-25T05:21:05.077Z,14.03
2019-05-25T05:23:33.569Z,14.04
2019-05-25T05:26:02.171Z,14.05
2019-05-25T05:28:30.652Z,14.04
2019-05-25T05:30:59.144Z,14.04
2019-05-25T05:33:27.726Z,14.05
2019-05-25T05:35:56.373Z,14.07
2019-05-25T05:38:24.969Z,14.08
2019-05-25T05:40:54.070Z,14.09
2019-05-25T05:43:23.326Z,14.10
2019-05-25T05:45:54.137Z,14.11
2019-05-25T05:48:24.582Z,14.12
2019-05-25T05:50:53.622Z,14.17
2019-05-25T05:53:24.731Z,14.21
2019-05-25T05:55:53.234Z,14.23
2019-05-25T05:58:21.785Z,14.26
2019-05-25T06:00:50.461Z,14.30
2019-05-25T06:03:18.984Z,14.37
2019-05-25T06:05:47.459Z,14.44
2019-05-25T06:08:15.917Z,14.51
2019-05-25T06:10:44.525Z,14.60
2019-05-25T06:13:12.988Z,14.65
2019-05-25T06:15:41.454Z,14.73
2019-05-25T06:18:09.975Z,14.81
2019-05-25T06:20:38.518Z,14.90
2019-05-25T06:23:11.493Z,14.96
2019-05-25T06:25:37.251Z,15.01
2019-05-25T06:28:05.794Z,15.06
2019-05-25T06:30:34.265Z,15.09
2019-05-25T06:33:02.808Z,15.13
2019-05-25T06:35:31.286Z,15.16
2019-05-25T06:37:59.768Z,15.16
2019-05-25T06:40:28.279Z,15.15
2019-05-25T06:42:56.750Z,15.14
2019-05-25T06:45:25.250Z,15.15
2019-05-25T06:47:54.847Z,15.16
2019-05-25T06:50:23.334Z,15.20
2019-05-25T06:52:51.816Z,15.25
2019-05-25T06:55:20.407Z,15.29
2019-05-25T06:57:48.887Z,15.33
2019-05-25T07:00:18.241Z,15.37
2019-05-25T07:02:46.744Z,15.40
2019-05-25T07:05:15.790Z,15.41
2019-05-25T07:07:44.278Z,15.42
2019-05-25T07:10:13.081Z,15.46
2019-05-25T07:12:41.553Z,15.50
2019-05-25T07:15:11.322Z,15.58
2019-05-25T07:17:39.846Z,15.63
2019-05-25T07:20:08.941Z,15.69
2019-05-25T07:22:37.468Z,15.75
2019-05-25T07:25:07.081Z,15.78
2019-05-25T07:27:35.567Z,15.81
2019-05-25T07:30:08.191Z,15.81
2019-05-25T07:32:36.767Z,15.75
2019-05-25T07:35:08.957Z,15.70
2019-05-25T07:37:37.458Z,15.66
2019-05-25T07:40:07.349Z,15.63
2019-05-25T07:42:35.814Z,15.65
2019-05-25T07:45:06.345Z,15.73
2019-05-25T07:47:34.888Z,15.84
2019-05-25T07:50:08.163Z,15.93
2019-05-25T07:52:36.640Z,16.03
2019-05-25T07:55:06.870Z,16.12
2019-05-25T07:57:35.337Z,16.18
2019-05-25T08:00:06.147Z,16.21
2019-05-25T08:02:34.729Z,16.21
2019-05-25T08:05:03.978Z,16.19
2019-05-25T08:07:32.460Z,16.19
2019-05-25T08:10:00.993Z,16.20
2019-05-25T08:12:29.468Z,16.17
2019-05-25T08:14:57.967Z,16.19
2019-05-25T08:17:26.481Z,16.25
2019-05-25T08:19:54.959Z,16.34
2019-05-25T08:22:23.441Z,16.40
2019-05-25T08:24:51.979Z,16.48
2019-05-25T08:27:20.464Z,16.51
2019-05-25T08:29:48.932Z,16.56
2019-05-25T08:32:17.462Z,16.65
2019-05-25T08:34:45.959Z,16.75
2019-05-25T08:37:14.423Z,16.64
2019-05-25T08:39:42.947Z,16.87
2019-05-25T08:42:11.431Z,16.87
2019-05-25T08:44:39.905Z,16.80
2019-05-25T08:47:08.441Z,16.69
2019-05-25T08:49:36.910Z,16.62
2019-05-25T08:52:05.871Z,16.54
2019-05-25T08:54:34.387Z,16.48
2019-05-25T08:57:02.998Z,16.42
2019-05-25T08:59:31.667Z,16.38
2019-05-25T09:02:00.256Z,16.39
2019-05-25T09:04:28.744Z,16.40
2019-05-25T09:06:57.262Z,16.42
2019-05-25T09:09:25.798Z,16.43
2019-05-25T09:11:54.271Z,16.47
2019-05-25T09:14:22.756Z,16.54
2019-05-25T09:16:51.438Z,16.66
2019-05-25T09:19:19.914Z,16.80
2019-05-25T09:22:02.165Z,16.96
2019-05-25T09:24:18.627Z,17.08
2019-05-25T09:26:47.127Z,17.20
2019-05-25T09:29:15.606Z,17.26
2019-05-25T09:31:44.157Z,17.30
2019-05-25T09:34:12.709Z,17.31
2019-05-25T09:36:41.188Z,17.30
2019-05-25T09:39:09.719Z,17.30
2019-05-25T09:41:38.358Z,17.26
2019-05-25T09:44:06.910Z,17.24
2019-05-25T09:46:35.433Z,17.21
2019-05-25T09:49:03.936Z,17.18
2019-05-25T09:51:32.406Z,17.16
2019-05-25T09:54:02.768Z,17.10
2019-05-25T09:56:31.332Z,17.02
2019-05-25T09:58:59.805Z,16.94
2019-05-25T10:01:28.499Z,16.89
2019-05-25T10:03:57.005Z,16.88
2019-05-25T10:06:25.509Z,16.84
2019-05-25T10:08:54.012Z,16.78
2019-05-25T10:11:22.503Z,16.73
2019-05-25T10:13:51.005Z,16.66
2019-05-25T10:16:19.579Z,16.62
2019-05-25T10:18:48.361Z,16.59
2019-05-25T10:21:16.843Z,16.56
2019-05-25T10:23:45.447Z,16.54
2019-05-25T10:26:13.931Z,16.51
2019-05-25T10:28:42.397Z,16.50
2019-05-25T10:31:11.162Z,16.50
2019-05-25T10:33:39.644Z,16.55
2019-05-25T10:36:09.262Z,16.63
2019-05-25T10:38:38.522Z,16.73
2019-05-25T10:41:07.163Z,16.81
2019-05-25T10:43:35.618Z,16.88
2019-05-25T10:46:04.154Z,16.90
2019-05-25T10:48:32.639Z,16.92
2019-05-25T10:51:01.129Z,16.96
2019-05-25T10:53:29.635Z,16.98
2019-05-25T10:55:58.378Z,17.00
2019-05-25T10:58:26.863Z,17.01
2019-05-25T11:00:55.413Z,17.00
2019-05-25T11:03:23.898Z,17.01
2019-05-25T11:05:52.367Z,17.02
2019-05-25T11:08:20.891Z,17.03
2019-05-25T11:10:49.364Z,17.02
2019-05-25T11:13:17.850Z,17.03
2019-05-25T11:15:46.375Z,17.05
2019-05-25T11:18:14.842Z,17.12
2019-05-25T11:20:43.323Z,17.20
2019-05-25T11:23:11.839Z,17.27
2019-05-25T11:25:40.332Z,17.34
2019-05-25T11:28:08.802Z,17.40
2019-05-25T11:30:37.346Z,17.44
2019-05-25T11:33:05.846Z,17.49
2019-05-25T11:35:34.396Z,17.55
2019-05-25T11:38:02.932Z,17.62
2019-05-25T11:40:31.409Z,17.66
2019-05-25T11:42:59.889Z,17.68
2019-05-25T11:45:28.487Z,17.73
2019-05-25T11:47:56.969Z,17.77
2019-05-25T11:50:25.451Z,17.79
2019-05-25T11:52:54.014Z,17.83
2019-05-25T11:55:22.621Z,17.86
2019-05-25T11:57:51.408Z,17.89
2019-05-25T12:00:25.490Z,17.92
2019-05-25T12:02:51.399Z,18.02
2019-05-25T12:05:19.954Z,18.13
2019-05-25T12:07:48.492Z,18.23
2019-05-25T12:10:17.419Z,18.34
2019-05-25T12:12:45.925Z,18.46
2019-05-25T12:15:14.777Z,18.54
2019-05-25T12:17:43.261Z,18.60
2019-05-25T12:20:12.075Z,18.62
2019-05-25T12:22:40.606Z,18.60
2019-05-25T12:25:09.409Z,18.58
2019-05-25T12:27:37.885Z,18.60
2019-05-25T12:30:08.008Z,18.59
2019-05-25T12:32:36.496Z,18.56
2019-05-25T12:35:06.765Z,18.52
2019-05-25T12:37:35.267Z,18.48
2019-05-25T12:40:06.226Z,18.45
2019-05-25T12:42:34.965Z,18.46
2019-05-25T12:45:03.673Z,18.48
2019-05-25T12:47:32.154Z,18.51
2019-05-25T12:50:00.639Z,18.56
2019-05-25T12:52:29.245Z,18.62
2019-05-25T12:54:57.840Z,18.64
2019-05-25T12:57:26.329Z,18.60
2019-05-25T12:59:55.311Z,18.59
2019-05-25T13:02:23.789Z,18.55
2019-05-25T13:04:52.261Z,18.51
2019-05-25T13:07:20.785Z,18.51
2019-05-25T13:09:49.593Z,18.53
2019-05-25T13:12:18.205Z,18.52
2019-05-25T13:14:46.870Z,18.50
2019-05-25T13:17:15.353Z,18.52
2019-05-25T13:19:43.839Z,18.55
2019-05-25T13:22:12.377Z,18.60
2019-05-25T13:24:40.862Z,18.69
2019-05-25T13:27:09.329Z,18.77
2019-05-25T13:29:37.863Z,18.82
2019-05-25T13:32:06.403Z,18.82
2019-05-25T13:34:34.875Z,18.83
2019-05-25T13:37:03.409Z,18.86
2019-05-25T13:39:31.887Z,18.93
2019-05-25T13:42:00.366Z,18.96
2019-05-25T13:44:28.894Z,18.97
2019-05-25T13:46:57.368Z,19.01
2019-05-25T13:49:25.852Z,19.04
2019-05-25T13:51:54.372Z,19.04
2019-05-25T13:54:22.847Z,18.99
2019-05-25T13:56:51.375Z,18.97
2019-05-25T13:59:19.934Z,18.98
2019-05-25T14:01:48.947Z,19.05
2019-05-25T14:04:17.423Z,19.15
2019-05-25T14:06:45.959Z,19.27
2019-05-25T14:09:16.010Z,19.35
2019-05-25T14:11:44.584Z,19.47
2019-05-25T14:14:13.122Z,19.52
2019-05-25T14:16:41.603Z,19.52
2019-05-25T14:19:10.153Z,19.48
2019-05-25T14:21:38.679Z,19.43
2019-05-25T14:24:07.213Z,19.41
2019-05-25T14:26:35.706Z,19.35
2019-05-25T14:29:04.238Z,19.31
2019-05-25T14:31:45.161Z,19.33
2019-05-25T14:34:02.935Z,19.48
2019-05-25T14:36:31.436Z,19.54
2019-05-25T14:38:59.910Z,19.62
2019-05-25T14:41:28.395Z,19.62
2019-05-25T14:43:56.909Z,19.61
2019-05-25T14:46:28.136Z,19.55
2019-05-25T14:48:55.707Z,19.48
2019-05-25T14:51:24.253Z,19.40
2019-05-25T14:53:52.731Z,19.40
2019-05-25T14:56:21.229Z,19.47
2019-05-25T14:58:49.820Z,19.54
2019-05-25T15:01:18.348Z,19.56
2019-05-25T15:03:47.847Z,19.57
2019-05-25T15:06:20.681Z,19.55
2019-05-25T15:08:46.575Z,19.48
2019-05-25T15:11:15.725Z,19.37
2019-05-25T15:13:44.258Z,19.29
2019-05-25T15:16:12.802Z,19.22
2019-05-25T15:18:41.279Z,19.21
2019-05-25T15:21:11.414Z,19.25
2019-05-25T15:23:39.898Z,19.28
2019-05-25T15:26:08.377Z,19.29
2019-05-25T15:28:37.049Z,19.35
2019-05-25T15:31:05.602Z,19.40
2019-05-25T15:33:34.101Z,19.49
2019-05-25T15:36:02.704Z,19.54
2019-05-25T15:38:31.196Z,19.59
2019-05-25T15:40:59.670Z,19.62
2019-05-25T15:43:28.206Z,19.63
2019-05-25T15:45:56.678Z,19.62
2019-05-25T15:48:26.391Z,19.56
2019-05-25T15:50:55.427Z,19.49
2019-05-25T15:53:23.903Z,19.44
2019-05-25T15:55:52.400Z,19.42
2019-05-25T15:58:20.923Z,19.44
2019-05-25T16:00:52.535Z,19.46
2019-05-25T16:03:21.597Z,19.54
2019-05-25T16:05:50.762Z,19.59
2019-05-25T16:08:21.173Z,19.60
2019-05-25T16:10:49.732Z,19.61
2019-05-25T16:13:18.342Z,19.62
2019-05-25T16:15:46.839Z,19.62
2019-05-25T16:18:15.315Z,19.56
2019-05-25T16:20:43.932Z,19.51
2019-05-25T16:23:12.468Z,19.51
2019-05-25T16:25:40.957Z,19.48
2019-05-25T16:28:09.718Z,19.41
2019-05-25T16:30:38.200Z,19.36
2019-05-25T16:33:12.179Z,19.32
2019-05-25T16:35:36.990Z,19.30
2019-05-25T16:38:05.681Z,19.37
2019-05-25T16:40:34.283Z,19.49
2019-05-25T16:43:02.900Z,19.70
2019-05-25T16:45:31.389Z,19.89
2019-05-25T16:47:59.864Z,19.99
2019-05-25T16:50:28.378Z,20.16
2019-05-25T16:52:56.856Z,20.46
2019-05-25T16:55:25.342Z,20.48
2019-05-25T16:57:55.044Z,20.49
2019-05-25T17:00:30.435Z,20.44
2019-05-25T17:02:59.668Z,20.30
2019-05-25T17:05:29.007Z,20.08
2019-05-25T17:07:58.075Z,19.84
2019-05-25T17:10:26.694Z,19.63
2019-05-25T17:12:55.209Z,19.64
2019-05-25T17:15:23.779Z,19.59
2019-05-25T17:17:52.374Z,19.60
2019-05-25T17:20:21.288Z,19.61
2019-05-25T17:22:49.754Z,19.57
2019-05-25T17:25:18.364Z,19.49
2019-05-25T17:27:46.837Z,19.38
2019-05-25T17:30:17.339Z,19.28
2019-05-25T17:32:45.905Z,19.18
2019-05-25T17:35:15.824Z,19.10
2019-05-25T17:37:44.289Z,19.02
2019-05-25T17:40:13.340Z,18.95
2019-05-25T17:42:43.361Z,18.90
2019-05-25T17:45:12.007Z,18.86
2019-05-25T17:47:40.530Z,18.78
2019-05-25T17:50:09.079Z,18.74
2019-05-25T17:52:37.553Z,18.68
2019-05-25T17:55:07.722Z,18.65
2019-05-25T17:57:36.194Z,18.65
2019-05-25T18:00:06.786Z,18.62
2019-05-25T18:02:35.484Z,18.57
2019-05-25T18:05:07.913Z,18.52
2019-05-25T18:07:36.449Z,18.47
2019-05-25T18:10:08.794Z,18.44
2019-05-25T18:12:37.265Z,18.41
2019-05-25T18:15:08.906Z,18.40
2019-05-25T18:17:37.423Z,18.39
2019-05-25T18:20:08.439Z,18.37
2019-05-25T18:22:36.923Z,18.31
2019-05-25T18:25:06.441Z,18.25
2019-05-25T18:27:34.949Z,18.19
2019-05-25T18:30:04.633Z,18.13
2019-05-25T18:32:33.388Z,18.06
2019-05-25T18:35:01.945Z,18.00
2019-05-25T18:37:30.609Z,17.96
2019-05-25T18:39:59.129Z,17.94
2019-05-25T18:42:30.241Z,17.89
2019-05-25T18:44:57.869Z,17.84
2019-05-25T18:47:26.401Z,17.76
2019-05-25T18:49:54.877Z,17.68
2019-05-25T18:52:23.379Z,17.63
2019-05-25T18:54:51.961Z,17.59
2019-05-25T18:57:20.441Z,17.53
2019-05-25T18:59:48.943Z,17.48
2019-05-25T19:02:17.451Z,17.43
2019-05-25T19:04:58.622Z,17.39
2019-05-25T19:07:16.242Z,17.34
2019-05-25T19:09:44.839Z,17.30
2019-05-25T19:12:13.505Z,17.26
2019-05-25T19:14:42.004Z,17.23
2019-05-25T19:17:11.547Z,17.21
2019-05-25T19:19:40.054Z,17.18
2019-05-25T19:22:08.506Z,17.13
2019-05-25T19:24:37.032Z,17.06
2019-05-25T19:27:05.511Z,16.99
2019-05-25T19:29:34.078Z,16.91
2019-05-25T19:32:02.610Z,16.86
2019-05-25T19:34:31.104Z,16.79
2019-05-25T19:37:03.720Z,16.71
2019-05-25T19:39:29.858Z,16.63
2019-05-25T19:41:58.416Z,16.55
2019-05-25T19:44:26.890Z,16.46
2019-05-25T19:46:55.429Z,16.34
2019-05-25T19:49:23.898Z,16.25
2019-05-25T19:51:52.456Z,16.16
2019-05-25T19:54:20.984Z,16.07
2019-05-25T19:56:49.542Z,15.98
2019-05-25T19:59:18.026Z,15.90
2019-05-25T20:01:46.548Z,15.83
2019-05-25T20:04:15.018Z,15.76
2019-05-25T20:06:43.573Z,15.71
2019-05-25T20:09:12.114Z,15.67
2019-05-25T20:11:40.590Z,15.62
2019-05-25T20:14:09.363Z,15.58
2019-05-25T20:16:39.426Z,15.52
2019-05-25T20:19:07.907Z,15.45
2019-05-25T20:21:36.420Z,15.40
2019-05-25T20:24:05.003Z,15.36
2019-05-25T20:26:35.105Z,15.31
2019-05-25T20:29:03.589Z,15.26
2019-05-25T20:31:32.214Z,15.22
2019-05-25T20:34:00.691Z,15.18
2019-05-25T20:36:29.163Z,15.15
2019-05-25T20:38:57.660Z,15.09
2019-05-25T20:41:26.167Z,15.05
2019-05-25T20:43:54.779Z,15.00
2019-05-25T20:46:23.318Z,14.94
2019-05-25T20:48:51.797Z,14.86
2019-05-25T20:51:20.298Z,14.79
2019-05-25T20:53:48.817Z,14.73
2019-05-25T20:56:17.483Z,14.69
2019-05-25T20:58:45.985Z,14.65
2019-05-25T21:01:14.481Z,14.60
2019-05-25T21:03:43.367Z,14.54
2019-05-25T21:06:11.890Z,14.46
2019-05-25T21:08:40.453Z,14.39
2019-05-25T21:11:08.943Z,14.32
2019-05-25T21:13:37.442Z,14.25
2019-05-25T21:16:06.194Z,14.17
2019-05-25T21:18:34.691Z,14.09
2019-05-25T21:21:03.232Z,14.00
2019-05-25T21:23:31.795Z,13.93
2019-05-25T21:26:00.278Z,13.87
2019-05-25T21:28:28.784Z,13.79
2019-05-25T21:30:57.322Z,13.73
2019-05-25T21:33:25.812Z,13.67
2019-05-25T21:36:07.641Z,13.61
2019-05-25T21:38:24.598Z,13.54
2019-05-25T21:40:53.089Z,13.49
2019-05-25T21:43:21.611Z,13.44
2019-05-25T21:45:50.201Z,13.39
2019-05-25T21:48:18.685Z,13.34
2019-05-25T21:50:47.161Z,13.29
2019-05-25T21:53:15.685Z,13.24
2019-05-25T21:55:44.202Z,13.20
2019-05-25T21:58:12.686Z,13.16
2019-05-25T22:00:43.003Z,13.11
2019-05-25T22:03:11.487Z,13.05
2019-05-25T22:05:39.992Z,12.99
2019-05-25T22:08:08.494Z,12.93
2019-05-25T22:10:37.037Z,12.89
2019-05-25T22:13:05.525Z,12.84
2019-05-25T22:15:34.117Z,12.79
2019-05-25T22:18:03.785Z,12.75
2019-05-25T22:20:32.275Z,12.72
2019-05-25T22:23:00.907Z,12.68
2019-05-25T22:25:29.434Z,12.64
2019-05-25T22:27:57.942Z,12.62
2019-05-25T22:30:28.027Z,12.59
2019-05-25T22:32:56.514Z,12.55
2019-05-25T22:35:25.073Z,12.51
2019-05-25T22:37:53.614Z,12.49
2019-05-25T22:40:23.733Z,12.45
2019-05-25T22:42:52.272Z,12.42
2019-05-25T22:45:20.873Z,12.39
2019-05-25T22:47:49.354Z,12.35
2019-05-25T22:50:18.017Z,12.31
2019-05-25T22:52:46.545Z,12.27
2019-05-25T22:55:18.405Z,12.23
2019-05-25T22:57:47.879Z,12.21
2019-05-25T23:00:17.015Z,12.15
2019-05-25T23:02:45.480Z,12.10
2019-05-25T23:05:14.025Z,12.07
2019-05-25T23:07:42.542Z,12.03
2019-05-25T23:10:11.205Z,11.99
2019-05-25T23:12:39.724Z,11.95
2019-05-25T23:15:08.949Z,11.89
2019-05-25T23:17:37.578Z,11.84
2019-05-25T23:20:09.039Z,11.79
2019-05-25T23:22:37.602Z,11.76
2019-05-25T23:25:06.942Z,11.73
2019-05-25T23:27:35.422Z,11.68
2019-05-25T23:30:04.586Z,11.63
2019-05-25T23:32:33.090Z,11.58
2019-05-25T23:35:01.619Z,11.54
2019-05-25T23:37:30.173Z,11.50
2019-05-25T23:39:58.729Z,11.45
2019-05-25T23:42:27.297Z,11.41
2019-05-25T23:44:55.816Z,11.39
2019-05-25T23:47:24.292Z,11.36
2019-05-25T23:49:52.778Z,11.33
2019-05-25T23:52:21.327Z,11.30
2019-05-25T23:54:49.848Z,11.27
2019-05-25T23:57:18.466Z,11.23
2019-05-25T23:59:50.532Z,11.22
